Highlands Peak, California Weather observations

Data are for observation ending at time listed.
 Day   Time    Ave.   Ave.  Ave.  Vector   Max.   Stn.    Total    Solar   Ave.  
  of    of     Air    Rel.  Wind   Wind    Wind   Baro.  Precip.   Rad.    Soil  
Year   Day     Temp.  Hum.  Speed  Dir.    Gust   Pres.                    Temp. 
2016   (PST)    F      %     mph   deg.    mph     mb.     in.     W/m2     F   
------------------------------------------------------------------------------
 209    0:00   80.5    22    4.5    59      7.2   928.2    0.00       0    91.4
 209    0:10   80.2    20    4.7    78      8.7   928.2    0.00       0    91.3
 209    0:20   81.5    20    5.7    43      8.8   928.1    0.00       0    91.1
 209    0:30   82.5    16    2.7   112      3.7   928.1    0.00       0    90.9
 209    0:40   83.4    13    3.6    84      4.5   928.1    0.00       0    90.8
 209    0:50   83.0    15    2.6    84      3.6   928.1    0.00       0    90.5
 209    1:00   83.2    13    2.7    98      3.4   928.1    0.00       0    90.3
 209    1:10   83.2    13    3.4    85      4.8   928.1    0.00       0    90.2
 209    1:20   83.0    14    2.3   119      3.6   928.1    0.00       0    90.0
 209    1:30   83.5    14    1.5    99      2.6   928.1    0.00       0    89.8
 209    1:40   82.5    19    3.5    52      5.8   928.1    0.00       0    89.5
 209    1:50   81.3    21    3.3    47      4.9   928.1    0.00       0    89.3
 209    2:00   81.7    19    1.5    40      3.9   928.1    0.00       0    89.1
 209    2:10   81.1    22    4.2    48      5.8   928.1    0.00       0    88.9
 209    2:20   81.4    20    2.4    51      4.8   928.1    0.00       0    88.8
 209    2:30   82.5    14    0.3    52      2.5   928.1    0.00       0    88.6
 209    2:40   82.3    19    4.7    54      6.6   928.0    0.00       0    88.4
 209    2:50   82.6    18    2.8    72      5.8   928.0    0.00       0    88.2
 209    3:00   84.3    13    2.5   106      3.1   928.0    0.00       0    88.1
 209    3:10   84.7    12    2.7   112      3.3   928.0    0.00       0    88.0
 209    3:20   84.6    11    3.8   136      4.7   928.0    0.00       0    87.8
 209    3:30   84.3    11    3.5   139      4.0   928.0    0.00       0    87.7
 209    3:40   84.5    10    2.3   147      3.0   928.0    0.00       0    87.6
 209    3:50   84.9    11    0.8   191      2.6   928.1    0.00       0    87.4
 209    4:00   85.1    11    1.0   256      1.8   928.1    0.00       0    87.3
 209    4:10   84.8    10    0.3   216      1.5   928.1    0.00       0    87.0
 209    4:20   84.5    10    0.9   235      1.6   928.1    0.00       0    86.6
 209    4:30   84.5    11    0.4   310      1.8   928.2    0.00       0    86.5
 209    4:40   83.9    11    0.2   205      1.5   928.2    0.00       0    86.4
 209    4:50   84.3    10    1.9   222      2.6   928.3    0.00       0    86.3
 209    5:00   84.4    10    0.3   252      1.6   928.3    0.00       1    86.1
 209    5:10   84.0    10    1.7   172      2.7   928.4    0.00       2    86.0
 209    5:20   84.3    10    2.0   195      2.9   928.5    0.00       6    85.9
 209    5:30   84.1    11    0.7   181      1.3   928.6    0.00      11    85.8
 209    5:40   84.2    11    0.6   162      1.4   928.7    0.00      16    85.7
 209    5:50   83.9    12    0.2    52      2.1   928.7    0.00      21    85.6
 209    6:00   83.8    12    1.1   171      2.1   928.8    0.00      26    85.5
 209    6:10   84.3    10    2.1   161      2.9   928.9    0.00      31    85.4
 209    6:20   84.9    11    1.7   136      2.1   928.9    0.00     154    85.3
 209    6:30   86.8    10    0.2   129      1.1   929.0    0.00     213    85.2
 209    6:40   87.2    11    0.9   265      1.8   929.1    0.00     250    85.1
 209    6:50   87.3    11    0.0   256      0.3   929.2    0.00     286    85.1
 209    7:00   88.6    16    1.8    68      4.2   929.2    0.00     323    85.1
 209    7:10   87.3    23    2.0    58      3.4   929.2    0.00     360    85.0
 209    7:20   89.0    22    0.9    78      2.0   929.2    0.00     394    85.0
 209    7:30   88.1    15    1.2   233      1.5   929.3    0.00     420    85.0
 209    7:40   88.0    14    0.6   222      1.4   929.4    0.00     464    85.0
 209    7:50   89.7    14    0.9   126      2.3   929.4    0.00     500    85.0
 209    8:00   89.5    14    1.4   206      2.2   929.5    0.00     534    85.2
 209    8:10   88.2    15    1.0   258      1.7   929.5    0.00     569    85.2
 209    8:20   88.2    16    1.1   227      2.7   929.5    0.00     601    85.2
 209    8:30   87.9    17    1.7   227      2.9   929.6    0.00     634    85.4
 209    8:40   88.0    17    1.6   237      2.9   929.6    0.00     664    85.4
 209    8:50   88.0    15    2.1   212      5.0   929.7    0.00     695    85.6
 209    9:00   88.9    14    2.0   200      3.2   929.7    0.00     727    85.8
 209    9:10   88.3    15    2.4   256      3.9   929.8    0.00     763    85.9
 209    9:20   87.7    16    2.8   266      4.6   929.8    0.00     789    86.0
 209    9:30   87.7    16    2.8   260      4.2   929.9    0.00     805    86.1
 209    9:40   87.9    16    3.2   263      4.9   930.0    0.00     839    86.3
 209    9:50   88.0    17    3.8   263      5.6   930.0    0.00     856    86.5
 209   10:00   88.1    17    3.7   268      5.2   930.0    0.00     869    86.8
 209   10:10   88.6    16    3.8   269      5.6   930.1    0.00     880    87.0
 209   10:20   88.4    17    4.1   265      5.8   930.2    0.00     916    87.3
 209   10:30   88.3    14    3.6   259      5.3   930.2    0.00     896    87.6
 209   10:40   88.9    12    3.0   263      4.4   930.2    0.00     882    87.8
 209   10:50   89.3    13    3.3   261      4.7   930.2    0.00     913    88.1
 209   11:00   89.8    13    3.5   261      5.4   930.2    0.00     915    88.4
 209   11:10   89.5    13    3.3   269      4.7   930.2    0.00     943    88.6
 209   11:20   90.2    12    3.1   264      5.0   930.2    0.00     926    88.9
 209   11:30   90.4    13    4.3   270      7.2   930.2    0.00     916    89.2
 209   11:40   89.2    13    4.4   259      6.4   930.2    0.00     939    89.5
 209   11:50   89.6    15    4.1   256      5.9   930.2    0.00     948    89.7
 209   12:00   88.4    18    4.5   259      6.2   930.3    0.00     982    90.0
 209   12:10   88.4    17    4.9   266      7.1   930.3    0.00     954    90.3
 209   12:20   88.1    14    5.0   267      7.7   930.4    0.00     963    90.6
 209   12:30   88.5    13    3.9   272      6.1   930.4    0.00     928    90.8
 209   12:40   88.0    12    4.1   273      6.9   930.4    0.00     900    91.0
 209   12:50   88.6     9    4.1   270      6.1   930.3    0.00     928    91.2
 209   13:00   87.9     8    3.9   265      6.5   930.2    0.00     929    91.4
 209   13:10   88.5     8    4.2   263      7.3   930.2    0.00     911    91.7
 209   13:20   88.7     9    4.0   268      6.2   930.1    0.00     900    91.9
 209   13:30   89.2    10    4.1   272      7.4   930.0    0.00     901    92.1
 209   13:40   88.8    12    4.5   277      6.8   929.9    0.00     907    92.4
 209   13:50   89.8    12    4.6   272      8.0   929.9    0.00     880    92.7
 209   14:00   89.4    13    4.6   268      7.6   929.9    0.00     872    93.1
 209   14:10   89.0    13    4.3   270      6.7   929.9    0.00     875    93.5
 209   14:20   88.7    13    4.3   278      7.2   929.9    0.00     864    93.9
 209   14:30   88.1    11    3.8   277      5.6   929.9    0.00     836    94.4
 209   14:40   88.1    11    3.7   277      5.7   929.9    0.00     814    94.8
 209   14:50   88.8    10    4.2   272      6.8   929.8    0.00     794    95.1
 209   15:00   89.0    10    4.6   273      6.6   929.7    0.00     771    95.5
 209   15:10   89.4     9    4.6   272      6.7   929.6    0.00     748    95.9
 209   15:20   89.3     8    3.8   262      6.6   929.6    0.00     721    96.2
 209   15:30   89.3     8    4.0   277      6.5   929.6    0.00     693    96.5
 209   15:40   89.5     8    3.4   268      5.8   929.6    0.00     671    96.9
 209   15:50   89.9     8    3.9   276      6.1   929.5    0.00     644    97.2
 209   16:00   89.2     7    3.9   269      5.8   929.5    0.00     604    97.6
 209   16:10   89.2     8    4.2   276      5.9   929.4    0.00     572    97.8
 209   16:20   89.3     8    4.5   285      7.3   929.4    0.00     543    98.1
 209   16:30   88.8     8    3.0   279      5.6   929.4    0.00     507    98.4
 209   16:40   89.4     7    4.2   267      6.4   929.3    0.00     468    98.6
 209   16:50   88.9     7    3.9   271      5.8   929.3    0.00     437    98.8
 209   17:00   88.7     8    3.2   284      5.3   929.3    0.00     404    98.9
 209   17:10   89.2     8    4.2   280      7.4   929.2    0.00     370    99.2
 209   17:20   89.1     7    4.5   300      7.0   929.1    0.00     333    99.3
 209   17:30   89.0     7    4.2   289      6.6   929.1    0.00     298    99.5
 209   17:40   88.4     7    4.4   308      6.4   929.0    0.00     254    99.6
 209   17:50   87.8     7    4.6   300      6.2   929.0    0.00     221    99.6
 209   18:00   87.5     8    4.3   304      6.4   929.1    0.00     190    99.8
 209   18:10   86.6     8    4.4   313      6.0   929.1    0.00     160    99.8
 209   18:20   86.2     8    4.2   315      5.8   929.2    0.00     130    99.8
 209   18:30   86.3     8    4.4   318      5.7   929.2    0.00     102    99.8
 209   18:40   86.1     8    4.6   317      5.6   929.1    0.00      80    99.7
 209   18:50   85.8     8    5.2   313      5.8   929.1    0.00      60    99.7
 209   19:00   85.3     7    5.5   320      6.4   929.1    0.00      41    99.6
 209   19:10   84.7     8    5.0   350      6.7   929.1    0.00      24    99.5
 209   19:20   84.5     9    6.1     4      7.6   929.1    0.00       8    99.4
 209   19:30   84.3    10    6.6     5      8.0   929.1    0.00       2    99.2
 209   19:40   84.7    10    6.0     6      8.1   929.0    0.00       1    99.0
 209   19:50   84.3    12    6.2    17      8.7   929.1    0.00       0    98.9
 209   20:00   83.6    14    7.1    15      8.8   929.1    0.00       0    98.7
 209   20:10   83.1    16    7.2    21      8.6   929.2    0.00       0    98.5
 209   20:20   82.8    18    6.7    17      7.7   929.2    0.00       0    98.2
 209   20:30   82.9    19    6.8    19      8.6   929.3    0.00       0    98.0
 209   20:40   83.8    19    6.2     7      7.7   929.4    0.00       0    97.7
 209   20:50   83.9    20    6.6    15      8.3   929.5    0.00       0    97.4
 209   21:00   83.3    21    6.2    25      8.0   929.5    0.00       0    97.1
 209   21:10   83.4    22    6.5    29      8.3   929.5    0.00       0    96.9
 209   21:20   83.4    23    7.4    22      9.3   929.5    0.00       0    96.6
 209   21:30   83.2    24    7.9    21      9.6   929.4    0.00       0    96.4
 209   21:40   83.5    24    7.2    23      8.8   929.3    0.00       0    96.0
 209   21:50   83.4    25    7.8    19      9.9   929.3    0.00       0    95.8
 209   22:00   83.1    25    6.9    22      9.6   929.2    0.00       0    95.5
 209   22:10   84.0    24    6.2    23      8.6   929.2    0.00       0    95.2
 209   22:20   83.9    25    6.7    24      8.9   929.2    0.00       0    94.9
 209   22:30   83.2    26    6.2    25      8.8   929.2    0.00       0    94.7
 209   22:40   82.1    27    6.2    31      7.8   929.2    0.00       0    94.4
 209   22:50   81.9    27    5.6    37      6.9   929.1    0.00       0    94.2
 209   23:00   81.6    27    5.5    41      8.6   929.2    0.00       0    93.9
 209   23:10   80.9    28    5.7    45      6.9   929.1    0.00       0    93.7
 209   23:20   80.6    28    5.7    41      7.7   929.0    0.00       0    93.4
 209   23:30   80.7    27    6.0    40      8.3   929.0    0.00       0    93.2
 209   23:40   80.8    26    6.3    43      8.4   928.9    0.00       0    93.0

Return to Highlands Peak graphs page.


Western Regional Climate Center,wrcc@dri.edu